sensor_id;sensor_type;location;lat;lon;timestamp;P1;durP1;ratioP1;P2;durP2;ratioP2
63782;SDS011;49925;52.522;5.732;2023-03-01T03:10:13;44.20;;;20.60;;
63782;SDS011;49925;52.522;5.732;2023-03-01T03:12:49;47.20;;;21.90;;
63782;SDS011;49925;52.522;5.732;2023-03-01T03:17:45;54.42;;;22.08;;
63782;SDS011;49925;52.522;5.732;2023-03-01T03:20:12;43.25;;;22.13;;
63782;SDS011;49925;52.522;5.732;2023-03-01T03:25:13;49.03;;;21.70;;
63782;SDS011;49925;52.522;5.732;2023-03-01T03:32:40;41.40;;;20.00;;
63782;SDS011;49925;52.522;5.732;2023-03-01T03:35:28;48.95;;;20.13;;
63782;SDS011;49925;52.522;5.732;2023-03-01T03:38:03;48.63;;;20.50;;
63782;SDS011;49925;52.522;5.732;2023-03-01T03:40:36;48.40;;;21.75;;
63782;SDS011;49925;52.522;5.732;2023-03-01T03:43:12;45.50;;;20.98;;
63782;SDS011;49925;52.522;5.732;2023-03-01T03:45:48;44.92;;;20.33;;
63782;SDS011;49925;52.522;5.732;2023-03-01T03:48:17;48.78;;;21.63;;
63782;SDS011;49925;52.522;5.732;2023-03-01T03:50:51;49.45;;;20.67;;
63782;SDS011;49925;52.522;5.732;2023-03-01T03:53:21;41.28;;;20.50;;
63782;SDS011;49925;52.522;5.732;2023-03-01T03:55:50;47.40;;;21.20;;
63782;SDS011;49925;52.522;5.732;2023-03-01T03:58:18;39.67;;;19.20;;
63782;SDS011;49925;52.522;5.732;2023-03-01T04:00:49;45.75;;;18.83;;
63782;SDS011;49925;52.522;5.732;2023-03-01T04:03:19;50.95;;;20.27;;
63782;SDS011;49925;52.522;5.732;2023-03-01T04:05:46;42.50;;;19.63;;
63782;SDS011;49925;52.522;5.732;2023-03-01T04:08:14;44.55;;;19.92;;
63782;SDS011;49925;52.522;5.732;2023-03-01T04:10:44;46.13;;;20.45;;
63782;SDS011;49925;52.522;5.732;2023-03-01T04:13:15;41.28;;;19.98;;
63782;SDS011;49925;52.522;5.732;2023-03-01T04:15:50;39.47;;;18.67;;
63782;SDS011;49925;52.522;5.732;2023-03-01T04:18:22;43.05;;;19.77;;
63782;SDS011;49925;52.522;5.732;2023-03-01T04:20:51;47.80;;;19.90;;
63782;SDS011;49925;52.522;5.732;2023-03-01T04:23:21;42.92;;;20.23;;
63782;SDS011;49925;52.522;5.732;2023-03-01T04:25:56;45.53;;;19.98;;
63782;SDS011;49925;52.522;5.732;2023-03-01T04:28:28;42.90;;;20.20;;
63782;SDS011;49925;52.522;5.732;2023-03-01T04:31:01;45.92;;;21.20;;
63782;SDS011;49925;52.522;5.732;2023-03-01T04:33:40;82.05;;;23.83;;
63782;SDS011;49925;52.522;5.732;2023-03-01T04:36:18;418.50;;;30.15;;
63782;SDS011;49925;52.522;5.732;2023-03-01T04:38:50;578.90;;;33.20;;
63782;SDS011;49925;52.522;5.732;2023-03-01T04:41:19;905.53;;;39.75;;
63782;SDS011;49925;52.522;5.732;2023-03-01T04:43:48;177.48;;;22.50;;
63782;SDS011;49925;52.522;5.732;2023-03-01T06:16:15;144.52;;;19.25;;
63782;SDS011;49925;52.522;5.732;2023-03-01T06:18:42;149.85;;;18.00;;
63782;SDS011;49925;52.522;5.732;2023-03-01T06:21:09;82.63;;;17.88;;
63782;SDS011;49925;52.522;5.732;2023-03-01T06:23:36;110.60;;;18.20;;
63782;SDS011;49925;52.522;5.732;2023-03-01T06:26:07;78.57;;;18.83;;
63782;SDS011;49925;52.522;5.732;2023-03-01T06:28:36;123.60;;;18.55;;
63782;SDS011;49925;52.522;5.732;2023-03-01T06:31:03;82.78;;;18.65;;
63782;SDS011;49925;52.522;5.732;2023-03-01T06:33:35;50.70;;;16.90;;
63782;SDS011;49925;52.522;5.732;2023-03-01T06:36:02;30.95;;;16.52;;
63782;SDS011;49925;52.522;5.732;2023-03-01T06:38:29;35.00;;;17.45;;
63782;SDS011;49925;52.522;5.732;2023-03-01T06:40:56;35.85;;;16.60;;
63782;SDS011;49925;52.522;5.732;2023-03-01T06:43:25;29.40;;;16.70;;
63782;SDS011;49925;52.522;5.732;2023-03-01T06:45:53;30.95;;;16.67;;
63782;SDS011;49925;52.522;5.732;2023-03-01T06:48:20;32.20;;;16.85;;
63782;SDS011;49925;52.522;5.732;2023-03-01T06:50:47;39.13;;;22.80;;
63782;SDS011;49925;52.522;5.732;2023-03-01T06:53:14;30.25;;;16.40;;
63782;SDS011;49925;52.522;5.732;2023-03-01T06:55:41;28.20;;;15.98;;
63782;SDS011;49925;52.522;5.732;2023-03-01T06:58:08;28.40;;;15.95;;
63782;SDS011;49925;52.522;5.732;2023-03-01T07:00:37;31.58;;;15.95;;
63782;SDS011;49925;52.522;5.732;2023-03-01T07:03:06;29.05;;;16.27;;
63782;SDS011;49925;52.522;5.732;2023-03-01T07:05:34;55.92;;;16.70;;
63782;SDS011;49925;52.522;5.732;2023-03-01T07:08:02;32.45;;;16.52;;
63782;SDS011;49925;52.522;5.732;2023-03-01T07:10:29;29.67;;;16.52;;
63782;SDS011;49925;52.522;5.732;2023-03-01T07:12:56;29.60;;;15.63;;
63782;SDS011;49925;52.522;5.732;2023-03-01T07:15:25;26.05;;;14.90;;
63782;SDS011;49925;52.522;5.732;2023-03-01T07:17:53;26.30;;;15.23;;
63782;SDS011;49925;52.522;5.732;2023-03-01T07:20:20;29.98;;;16.50;;
63782;SDS011;49925;52.522;5.732;2023-03-01T07:22:52;29.60;;;15.13;;
63782;SDS011;49925;52.522;5.732;2023-03-01T07:25:20;34.30;;;15.48;;
63782;SDS011;49925;52.522;5.732;2023-03-01T07:27:51;26.75;;;15.90;;
63782;SDS011;49925;52.522;5.732;2023-03-01T07:30:19;34.25;;;16.15;;
63782;SDS011;49925;52.522;5.732;2023-03-01T07:32:47;30.40;;;16.00;;
63782;SDS011;49925;52.522;5.732;2023-03-01T07:35:14;26.17;;;14.77;;
63782;SDS011;49925;52.522;5.732;2023-03-01T07:37:41;28.98;;;16.60;;
63782;SDS011;49925;52.522;5.732;2023-03-01T07:40:08;29.05;;;16.05;;
63782;SDS011;49925;52.522;5.732;2023-03-01T07:42:37;28.35;;;15.93;;
63782;SDS011;49925;52.522;5.732;2023-03-01T07:45:05;27.58;;;15.68;;
63782;SDS011;49925;52.522;5.732;2023-03-01T07:47:33;31.35;;;15.68;;
63782;SDS011;49925;52.522;5.732;2023-03-01T07:50:00;27.45;;;14.35;;
63782;SDS011;49925;52.522;5.732;2023-03-01T07:52:28;28.70;;;15.52;;
63782;SDS011;49925;52.522;5.732;2023-03-01T07:54:55;25.75;;;14.70;;
63782;SDS011;49925;52.522;5.732;2023-03-01T07:57:23;24.38;;;14.80;;
63782;SDS011;49925;52.522;5.732;2023-03-01T07:59:50;26.73;;;15.40;;
63782;SDS011;49925;52.522;5.732;2023-03-01T08:02:17;24.48;;;14.27;;
63782;SDS011;49925;52.522;5.732;2023-03-01T08:04:44;30.92;;;16.08;;
63782;SDS011;49925;52.522;5.732;2023-03-01T08:07:11;29.02;;;16.40;;
63782;SDS011;49925;52.522;5.732;2023-03-01T08:09:38;29.08;;;15.25;;
63782;SDS011;49925;52.522;5.732;2023-03-01T08:12:05;30.10;;;16.55;;
63782;SDS011;49925;52.522;5.732;2023-03-01T08:14:33;31.15;;;17.08;;
63782;SDS011;49925;52.522;5.732;2023-03-01T08:17:00;32.58;;;17.35;;
63782;SDS011;49925;52.522;5.732;2023-03-01T08:19:29;30.05;;;16.85;;
63782;SDS011;49925;52.522;5.732;2023-03-01T08:21:56;31.33;;;17.92;;
63782;SDS011;49925;52.522;5.732;2023-03-01T08:24:24;30.10;;;17.17;;
63782;SDS011;49925;52.522;5.732;2023-03-01T08:26:51;33.72;;;17.90;;
63782;SDS011;49925;52.522;5.732;2023-03-01T08:29:19;33.50;;;17.67;;
63782;SDS011;49925;52.522;5.732;2023-03-01T08:31:46;31.88;;;17.52;;
63782;SDS011;49925;52.522;5.732;2023-03-01T08:34:15;34.50;;;18.70;;
63782;SDS011;49925;52.522;5.732;2023-03-01T08:36:44;36.95;;;18.60;;
63782;SDS011;49925;52.522;5.732;2023-03-01T08:39:13;34.28;;;18.15;;
63782;SDS011;49925;52.522;5.732;2023-03-01T08:41:42;36.38;;;18.75;;
63782;SDS011;49925;52.522;5.732;2023-03-01T08:44:12;36.88;;;19.17;;
63782;SDS011;49925;52.522;5.732;2023-03-01T08:46:43;38.60;;;20.43;;
63782;SDS011;49925;52.522;5.732;2023-03-01T08:49:15;40.92;;;20.90;;
63782;SDS011;49925;52.522;5.732;2023-03-01T08:51:44;41.25;;;21.90;;
63782;SDS011;49925;52.522;5.732;2023-03-01T08:56:45;45.33;;;21.52;;
63782;SDS011;49925;52.522;5.732;2023-03-01T08:59:13;38.63;;;20.77;;
63782;SDS011;49925;52.522;5.732;2023-03-01T09:01:41;47.83;;;20.88;;
63782;SDS011;49925;52.522;5.732;2023-03-01T09:04:10;49.53;;;23.30;;
63782;SDS011;49925;52.522;5.732;2023-03-01T09:06:38;62.70;;;27.73;;
63782;SDS011;49925;52.522;5.732;2023-03-01T09:09:06;72.88;;;27.80;;
63782;SDS011;49925;52.522;5.732;2023-03-01T09:11:37;57.60;;;26.20;;
63782;SDS011;49925;52.522;5.732;2023-03-01T09:14:04;61.40;;;28.20;;
63782;SDS011;49925;52.522;5.732;2023-03-01T09:16:32;67.32;;;27.50;;
63782;SDS011;49925;52.522;5.732;2023-03-01T09:19:02;66.20;;;28.10;;
63782;SDS011;49925;52.522;5.732;2023-03-01T09:21:30;75.38;;;30.50;;
63782;SDS011;49925;52.522;5.732;2023-03-01T09:24:06;75.15;;;29.77;;
63782;SDS011;49925;52.522;5.732;2023-03-01T09:26:39;70.25;;;28.95;;
63782;SDS011;49925;52.522;5.732;2023-03-01T09:29:07;73.03;;;30.40;;
63782;SDS011;49925;52.522;5.732;2023-03-01T09:31:36;86.57;;;34.47;;
63782;SDS011;49925;52.522;5.732;2023-03-01T09:34:03;87.78;;;35.47;;
63782;SDS011;49925;52.522;5.732;2023-03-01T09:36:31;83.78;;;33.38;;
63782;SDS011;49925;52.522;5.732;2023-03-01T09:39:00;70.70;;;30.52;;
63782;SDS011;49925;52.522;5.732;2023-03-01T09:46:57;50.00;;;24.35;;
63782;SDS011;49925;52.522;5.732;2023-03-01T09:49:33;46.22;;;21.63;;
63782;SDS011;49925;52.522;5.732;2023-03-01T09:54:54;41.17;;;21.23;;
63782;SDS011;49925;52.522;5.732;2023-03-01T09:57:30;52.53;;;23.17;;
63782;SDS011;49925;52.522;5.732;2023-03-01T10:00:12;51.72;;;23.20;;
63782;SDS011;49925;52.522;5.732;2023-03-01T10:03:10;53.33;;;22.60;;
63782;SDS011;49925;52.522;5.732;2023-03-01T10:05:48;52.55;;;21.90;;
63782;SDS011;49925;52.522;5.732;2023-03-01T10:08:48;37.05;;;16.63;;
63782;SDS011;49925;52.522;5.732;2023-03-01T10:11:31;30.95;;;13.70;;
63782;SDS011;49925;52.522;5.732;2023-03-01T10:14:12;31.92;;;13.27;;
63782;SDS011;49925;52.522;5.732;2023-03-01T10:16:58;30.80;;;13.63;;
63782;SDS011;49925;52.522;5.732;2023-03-01T10:19:31;19.42;;;9.85;;
63782;SDS011;49925;52.522;5.732;2023-03-01T10:22:21;31.08;;;10.60;;
63782;SDS011;49925;52.522;5.732;2023-03-01T10:24:58;20.92;;;10.27;;
63782;SDS011;49925;52.522;5.732;2023-03-01T10:27:48;20.27;;;9.45;;
63782;SDS011;49925;52.522;5.732;2023-03-01T10:30:21;17.13;;;7.50;;
63782;SDS011;49925;52.522;5.732;2023-03-01T10:33:14;20.17;;;8.82;;
63782;SDS011;49925;52.522;5.732;2023-03-01T10:35:50;16.60;;;8.43;;
63782;SDS011;49925;52.522;5.732;2023-03-01T10:38:18;22.55;;;8.18;;
63782;SDS011;49925;52.522;5.732;2023-03-01T10:41:05;16.55;;;7.18;;
63782;SDS011;49925;52.522;5.732;2023-03-01T10:43:52;18.63;;;7.53;;
63782;SDS011;49925;52.522;5.732;2023-03-01T10:46:33;14.13;;;7.68;;
63782;SDS011;49925;52.522;5.732;2023-03-01T10:49:21;15.93;;;7.93;;
63782;SDS011;49925;52.522;5.732;2023-03-01T10:51:50;18.63;;;8.20;;
63782;SDS011;49925;52.522;5.732;2023-03-01T10:54:27;22.83;;;8.07;;
63782;SDS011;49925;52.522;5.732;2023-03-01T10:56:57;17.13;;;8.20;;
63782;SDS011;49925;52.522;5.732;2023-03-01T10:59:27;15.65;;;7.90;;
63782;SDS011;49925;52.522;5.732;2023-03-01T11:02:21;24.92;;;8.60;;
63782;SDS011;49925;52.522;5.732;2023-03-01T11:04:56;16.35;;;7.75;;
63782;SDS011;49925;52.522;5.732;2023-03-01T11:07:53;20.88;;;8.50;;
63782;SDS011;49925;52.522;5.732;2023-03-01T11:10:24;19.85;;;8.20;;
63782;SDS011;49925;52.522;5.732;2023-03-01T11:13:15;22.00;;;8.35;;
63782;SDS011;49925;52.522;5.732;2023-03-01T11:15:58;21.88;;;8.35;;
63782;SDS011;49925;52.522;5.732;2023-03-01T11:18:27;23.00;;;7.93;;
63782;SDS011;49925;52.522;5.732;2023-03-01T11:21:12;17.40;;;7.60;;
63782;SDS011;49925;52.522;5.732;2023-03-01T11:23:42;15.70;;;7.32;;
63782;SDS011;49925;52.522;5.732;2023-03-01T11:26:09;22.35;;;7.43;;
63782;SDS011;49925;52.522;5.732;2023-03-01T11:28:38;22.35;;;7.05;;
63782;SDS011;49925;52.522;5.732;2023-03-01T11:31:08;18.10;;;7.43;;
63782;SDS011;49925;52.522;5.732;2023-03-01T11:33:46;15.02;;;7.07;;
63782;SDS011;49925;52.522;5.732;2023-03-01T11:36:54;20.38;;;7.65;;
63782;SDS011;49925;52.522;5.732;2023-03-01T11:39:29;16.75;;;7.60;;
63782;SDS011;49925;52.522;5.732;2023-03-01T11:42:14;18.15;;;7.78;;
63782;SDS011;49925;52.522;5.732;2023-03-01T11:44:52;16.02;;;7.75;;
63782;SDS011;49925;52.522;5.732;2023-03-01T11:58:57;21.90;;;8.48;;
63782;SDS011;49925;52.522;5.732;2023-03-01T12:10:28;18.73;;;8.75;;
63782;SDS011;49925;52.522;5.732;2023-03-01T12:16:20;21.55;;;9.20;;
63782;SDS011;49925;52.522;5.732;2023-03-01T12:22:59;17.55;;;8.82;;
63782;SDS011;49925;52.522;5.732;2023-03-01T12:34:46;23.30;;;10.33;;
63782;SDS011;49925;52.522;5.732;2023-03-01T12:45:44;34.33;;;10.38;;
63782;SDS011;49925;52.522;5.732;2023-03-01T12:51:36;18.73;;;8.57;;
63782;SDS011;49925;52.522;5.732;2023-03-01T12:54:07;23.50;;;9.15;;
63782;SDS011;49925;52.522;5.732;2023-03-01T12:56:42;19.13;;;9.13;;
63782;SDS011;49925;52.522;5.732;2023-03-01T13:33:50;31.90;;;9.50;;
63782;SDS011;49925;52.522;5.732;2023-03-01T13:38:57;20.58;;;9.70;;
63782;SDS011;49925;52.522;5.732;2023-03-01T13:44:50;18.20;;;9.38;;
63782;SDS011;49925;52.522;5.732;2023-03-01T13:49:47;19.83;;;8.80;;
63782;SDS011;49925;52.522;5.732;2023-03-01T13:52:38;22.17;;;8.93;;
63782;SDS011;49925;52.522;5.732;2023-03-01T13:57:50;17.73;;;8.55;;
63782;SDS011;49925;52.522;5.732;2023-03-01T14:03:01;18.65;;;8.45;;
63782;SDS011;49925;52.522;5.732;2023-03-01T14:05:34;15.70;;;7.28;;
63782;SDS011;49925;52.522;5.732;2023-03-01T14:08:13;19.35;;;8.15;;
63782;SDS011;49925;52.522;5.732;2023-03-01T14:13:25;16.67;;;7.63;;
63782;SDS011;49925;52.522;5.732;2023-03-01T14:16:08;21.27;;;7.15;;
63782;SDS011;49925;52.522;5.732;2023-03-01T14:21:30;16.55;;;8.52;;
63782;SDS011;49925;52.522;5.732;2023-03-01T14:23:57;18.35;;;8.48;;
63782;SDS011;49925;52.522;5.732;2023-03-01T14:26:25;15.77;;;8.05;;
63782;SDS011;49925;52.522;5.732;2023-03-01T14:28:52;16.75;;;7.18;;
63782;SDS011;49925;52.522;5.732;2023-03-01T14:34:16;21.42;;;8.40;;
63782;SDS011;49925;52.522;5.732;2023-03-01T14:36:47;17.25;;;7.57;;
63782;SDS011;49925;52.522;5.732;2023-03-01T14:39:19;18.80;;;7.55;;
63782;SDS011;49925;52.522;5.732;2023-03-01T14:41:50;18.10;;;8.05;;
63782;SDS011;49925;52.522;5.732;2023-03-01T14:44:21;19.27;;;7.93;;
63782;SDS011;49925;52.522;5.732;2023-03-01T14:46:54;15.90;;;7.72;;
63782;SDS011;49925;52.522;5.732;2023-03-01T14:49:24;14.77;;;8.20;;
63782;SDS011;49925;52.522;5.732;2023-03-01T14:51:59;21.45;;;8.63;;
63782;SDS011;49925;52.522;5.732;2023-03-01T14:54:44;18.65;;;8.07;;
63782;SDS011;49925;52.522;5.732;2023-03-01T14:57:24;17.45;;;8.23;;
63782;SDS011;49925;52.522;5.732;2023-03-01T14:59:53;15.20;;;7.93;;
63782;SDS011;49925;52.522;5.732;2023-03-01T15:02:23;22.92;;;7.75;;
63782;SDS011;49925;52.522;5.732;2023-03-01T15:04:52;29.17;;;8.68;;
63782;SDS011;49925;52.522;5.732;2023-03-01T15:07:30;20.55;;;7.70;;
63782;SDS011;49925;52.522;5.732;2023-03-01T15:10:01;16.60;;;7.90;;
63782;SDS011;49925;52.522;5.732;2023-03-01T15:15:52;22.58;;;8.73;;
63782;SDS011;49925;52.522;5.732;2023-03-01T15:18:13;21.17;;;9.13;;
63782;SDS011;49925;52.522;5.732;2023-03-01T15:20:50;18.42;;;7.90;;
63782;SDS011;49925;52.522;5.732;2023-03-01T15:23:27;18.02;;;8.20;;
63782;SDS011;49925;52.522;5.732;2023-03-01T15:25:56;18.73;;;8.75;;
63782;SDS011;49925;52.522;5.732;2023-03-01T15:28:25;19.02;;;8.65;;
63782;SDS011;49925;52.522;5.732;2023-03-01T15:31:13;17.40;;;8.50;;
63782;SDS011;49925;52.522;5.732;2023-03-01T15:33:50;14.40;;;7.72;;
63782;SDS011;49925;52.522;5.732;2023-03-01T15:39:27;26.40;;;8.38;;
63782;SDS011;49925;52.522;5.732;2023-03-01T15:47:56;14.73;;;8.25;;
63782;SDS011;49925;52.522;5.732;2023-03-01T15:50:31;18.75;;;8.90;;
63782;SDS011;49925;52.522;5.732;2023-03-01T15:53:03;24.92;;;8.98;;
63782;SDS011;49925;52.522;5.732;2023-03-01T15:55:37;16.90;;;8.63;;
63782;SDS011;49925;52.522;5.732;2023-03-01T15:58:18;18.35;;;9.30;;
63782;SDS011;49925;52.522;5.732;2023-03-01T16:00:50;23.27;;;9.00;;
63782;SDS011;49925;52.522;5.732;2023-03-01T16:03:27;18.13;;;8.52;;
63782;SDS011;49925;52.522;5.732;2023-03-01T16:05:54;20.83;;;8.65;;
63782;SDS011;49925;52.522;5.732;2023-03-01T16:08:22;19.17;;;8.90;;
63782;SDS011;49925;52.522;5.732;2023-03-01T16:10:49;19.88;;;9.30;;
63782;SDS011;49925;52.522;5.732;2023-03-01T16:13:17;18.65;;;9.50;;
63782;SDS011;49925;52.522;5.732;2023-03-01T16:15:45;26.73;;;9.77;;
63782;SDS011;49925;52.522;5.732;2023-03-01T16:18:12;20.98;;;8.68;;
63782;SDS011;49925;52.522;5.732;2023-03-01T16:20:39;18.98;;;9.07;;
63782;SDS011;49925;52.522;5.732;2023-03-01T16:23:07;19.15;;;9.40;;
63782;SDS011;49925;52.522;5.732;2023-03-01T16:25:36;18.88;;;9.20;;
63782;SDS011;49925;52.522;5.732;2023-03-01T16:28:04;24.17;;;9.57;;
63782;SDS011;49925;52.522;5.732;2023-03-01T16:30:36;21.40;;;9.57;;
63782;SDS011;49925;52.522;5.732;2023-03-01T16:33:11;25.75;;;9.82;;
63782;SDS011;49925;52.522;5.732;2023-03-01T16:35:57;20.98;;;9.20;;
63782;SDS011;49925;52.522;5.732;2023-03-01T16:38:26;31.77;;;9.60;;
63782;SDS011;49925;52.522;5.732;2023-03-01T16:40:53;29.20;;;9.90;;
63782;SDS011;49925;52.522;5.732;2023-03-01T16:43:20;21.05;;;10.50;;
63782;SDS011;49925;52.522;5.732;2023-03-01T16:45:47;23.60;;;10.10;;
63782;SDS011;49925;52.522;5.732;2023-03-01T16:48:14;18.08;;;9.60;;
63782;SDS011;49925;52.522;5.732;2023-03-01T16:50:41;25.13;;;10.52;;
63782;SDS011;49925;52.522;5.732;2023-03-01T16:53:09;23.85;;;10.43;;
63782;SDS011;49925;52.522;5.732;2023-03-01T16:55:36;19.50;;;10.43;;
63782;SDS011;49925;52.522;5.732;2023-03-01T16:58:04;20.17;;;10.00;;
63782;SDS011;49925;52.522;5.732;2023-03-01T17:05:25;21.23;;;9.90;;
63782;SDS011;49925;52.522;5.732;2023-03-01T17:07:53;23.42;;;10.05;;
63782;SDS011;49925;52.522;5.732;2023-03-01T17:10:22;29.48;;;10.95;;
63782;SDS011;49925;52.522;5.732;2023-03-01T17:12:49;22.88;;;10.68;;
63782;SDS011;49925;52.522;5.732;2023-03-01T17:15:16;21.35;;;10.68;;
63782;SDS011;49925;52.522;5.732;2023-03-01T17:17:43;23.15;;;10.48;;
63782;SDS011;49925;52.522;5.732;2023-03-01T17:20:10;18.05;;;10.50;;
63782;SDS011;49925;52.522;5.732;2023-03-01T17:22:38;30.70;;;10.65;;
63782;SDS011;49925;52.522;5.732;2023-03-01T17:25:07;33.47;;;14.25;;
63782;SDS011;49925;52.522;5.732;2023-03-01T17:27:57;28.48;;;12.10;;
63782;SDS011;49925;52.522;5.732;2023-03-01T17:30:24;31.38;;;10.70;;
63782;SDS011;49925;52.522;5.732;2023-03-01T17:32:51;29.73;;;11.52;;
63782;SDS011;49925;52.522;5.732;2023-03-01T17:35:21;34.47;;;11.50;;
63782;SDS011;49925;52.522;5.732;2023-03-01T17:37:48;29.50;;;12.63;;
63782;SDS011;49925;52.522;5.732;2023-03-01T17:40:15;34.05;;;12.55;;
63782;SDS011;49925;52.522;5.732;2023-03-01T17:42:42;31.63;;;12.35;;
63782;SDS011;49925;52.522;5.732;2023-03-01T17:45:09;34.95;;;13.60;;
63782;SDS011;49925;52.522;5.732;2023-03-01T17:47:37;35.65;;;13.25;;
63782;SDS011;49925;52.522;5.732;2023-03-01T17:50:04;32.30;;;13.13;;
63782;SDS011;49925;52.522;5.732;2023-03-01T17:52:33;38.70;;;13.27;;
63782;SDS011;49925;52.522;5.732;2023-03-01T17:55:00;27.63;;;13.10;;
63782;SDS011;49925;52.522;5.732;2023-03-01T17:57:27;32.28;;;12.65;;
63782;SDS011;49925;52.522;5.732;2023-03-01T17:59:54;30.10;;;12.73;;
63782;SDS011;49925;52.522;5.732;2023-03-01T18:02:21;30.85;;;13.07;;
63782;SDS011;49925;52.522;5.732;2023-03-01T18:04:48;28.05;;;13.27;;
63782;SDS011;49925;52.522;5.732;2023-03-01T18:07:15;28.92;;;12.85;;
63782;SDS011;49925;52.522;5.732;2023-03-01T18:09:42;30.63;;;12.68;;
63782;SDS011;49925;52.522;5.732;2023-03-01T18:12:09;28.10;;;12.43;;
63782;SDS011;49925;52.522;5.732;2023-03-01T18:14:37;31.35;;;13.73;;
63782;SDS011;49925;52.522;5.732;2023-03-01T18:17:04;34.17;;;13.05;;
63782;SDS011;49925;52.522;5.732;2023-03-01T18:19:37;28.77;;;13.00;;
63782;SDS011;49925;52.522;5.732;2023-03-01T18:22:08;27.08;;;11.90;;
63782;SDS011;49925;52.522;5.732;2023-03-01T18:24:36;28.67;;;13.02;;
63782;SDS011;49925;52.522;5.732;2023-03-01T18:27:03;34.97;;;14.30;;
63782;SDS011;49925;52.522;5.732;2023-03-01T18:29:31;28.70;;;12.80;;
63782;SDS011;49925;52.522;5.732;2023-03-01T18:44:29;28.00;;;13.30;;
63782;SDS011;49925;52.522;5.732;2023-03-01T20:20:46;38.28;;;18.10;;
63782;SDS011;49925;52.522;5.732;2023-03-01T20:23:15;45.00;;;18.67;;
63782;SDS011;49925;52.522;5.732;2023-03-01T20:25:44;43.60;;;18.15;;
63782;SDS011;49925;52.522;5.732;2023-03-01T20:30:44;38.20;;;16.90;;
63782;SDS011;49925;52.522;5.732;2023-03-01T20:33:11;47.03;;;17.88;;
63782;SDS011;49925;52.522;5.732;2023-03-01T20:35:42;40.58;;;18.45;;
63782;SDS011;49925;52.522;5.732;2023-03-01T20:38:11;45.83;;;19.08;;
63782;SDS011;49925;52.522;5.732;2023-03-01T20:40:38;46.72;;;19.65;;
63782;SDS011;49925;52.522;5.732;2023-03-01T20:43:08;48.45;;;20.73;;
63782;SDS011;49925;52.522;5.732;2023-03-01T20:45:36;57.03;;;22.20;;
63782;SDS011;49925;52.522;5.732;2023-03-01T20:48:03;48.28;;;21.10;;
63782;SDS011;49925;52.522;5.732;2023-03-01T20:50:30;51.63;;;22.80;;
63782;SDS011;49925;52.522;5.732;2023-03-01T20:52:57;53.67;;;23.02;;
63782;SDS011;49925;52.522;5.732;2023-03-01T20:55:24;49.33;;;23.13;;
63782;SDS011;49925;52.522;5.732;2023-03-01T20:57:51;56.65;;;24.25;;
63782;SDS011;49925;52.522;5.732;2023-03-01T21:00:18;55.90;;;24.17;;
63782;SDS011;49925;52.522;5.732;2023-03-01T21:02:46;57.15;;;24.52;;
63782;SDS011;49925;52.522;5.732;2023-03-01T21:05:13;58.92;;;24.35;;
63782;SDS011;49925;52.522;5.732;2023-03-01T21:07:40;58.95;;;25.10;;
63782;SDS011;49925;52.522;5.732;2023-03-01T21:10:08;53.03;;;24.30;;
63782;SDS011;49925;52.522;5.732;2023-03-01T21:12:38;59.45;;;24.17;;
63782;SDS011;49925;52.522;5.732;2023-03-01T21:15:09;59.42;;;26.38;;
63782;SDS011;49925;52.522;5.732;2023-03-01T21:17:53;59.60;;;25.25;;
63782;SDS011;49925;52.522;5.732;2023-03-01T21:20:20;61.85;;;25.98;;
63782;SDS011;49925;52.522;5.732;2023-03-01T21:22:47;62.05;;;26.58;;
63782;SDS011;49925;52.522;5.732;2023-03-01T21:25:14;61.65;;;26.48;;
63782;SDS011;49925;52.522;5.732;2023-03-01T21:27:41;59.80;;;26.33;;
63782;SDS011;49925;52.522;5.732;2023-03-01T21:30:09;66.82;;;26.67;;
63782;SDS011;49925;52.522;5.732;2023-03-01T21:32:37;61.67;;;27.05;;
63782;SDS011;49925;52.522;5.732;2023-03-01T21:35:07;60.83;;;27.85;;
63782;SDS011;49925;52.522;5.732;2023-03-01T21:37:34;60.75;;;26.75;;
63782;SDS011;49925;52.522;5.732;2023-03-01T21:40:03;65.85;;;28.02;;
63782;SDS011;49925;52.522;5.732;2023-03-01T21:42:34;62.35;;;27.38;;
63782;SDS011;49925;52.522;5.732;2023-03-01T21:45:02;65.45;;;26.38;;
63782;SDS011;49925;52.522;5.732;2023-03-01T21:47:29;65.18;;;27.13;;
63782;SDS011;49925;52.522;5.732;2023-03-01T21:49:56;60.03;;;27.13;;
63782;SDS011;49925;52.522;5.732;2023-03-01T21:52:23;61.85;;;26.35;;
63782;SDS011;49925;52.522;5.732;2023-03-01T21:54:50;62.22;;;28.27;;
63782;SDS011;49925;52.522;5.732;2023-03-01T21:57:18;57.20;;;25.73;;
63782;SDS011;49925;52.522;5.732;2023-03-01T21:59:45;63.65;;;27.60;;
63782;SDS011;49925;52.522;5.732;2023-03-01T22:02:12;60.53;;;26.60;;
63782;SDS011;49925;52.522;5.732;2023-03-01T22:04:40;61.63;;;27.88;;
63782;SDS011;49925;52.522;5.732;2023-03-01T22:07:07;59.33;;;25.58;;
63782;SDS011;49925;52.522;5.732;2023-03-01T22:09:35;61.45;;;28.05;;
63782;SDS011;49925;52.522;5.732;2023-03-01T22:12:04;59.15;;;26.05;;
63782;SDS011;49925;52.522;5.732;2023-03-01T22:14:31;59.80;;;26.73;;
63782;SDS011;49925;52.522;5.732;2023-03-01T22:16:58;56.35;;;26.48;;
63782;SDS011;49925;52.522;5.732;2023-03-01T22:19:26;56.72;;;25.95;;
63782;SDS011;49925;52.522;5.732;2023-03-01T22:36:42;63.15;;;27.95;;
63782;SDS011;49925;52.522;5.732;2023-03-01T22:39:11;70.55;;;28.05;;
63782;SDS011;49925;52.522;5.732;2023-03-01T22:41:42;71.05;;;29.05;;
63782;SDS011;49925;52.522;5.732;2023-03-01T22:44:11;74.87;;;29.67;;
63782;SDS011;49925;52.522;5.732;2023-03-01T22:46:41;73.70;;;29.67;;
63782;SDS011;49925;52.522;5.732;2023-03-01T22:49:08;72.88;;;30.00;;
63782;SDS011;49925;52.522;5.732;2023-03-01T22:51:37;69.70;;;28.80;;
63782;SDS011;49925;52.522;5.732;2023-03-01T22:54:07;76.53;;;30.67;;
63782;SDS011;49925;52.522;5.732;2023-03-01T22:56:35;73.43;;;29.52;;
63782;SDS011;49925;52.522;5.732;2023-03-01T22:59:04;82.70;;;30.83;;
63782;SDS011;49925;52.522;5.732;2023-03-01T23:01:35;82.28;;;31.98;;
63782;SDS011;49925;52.522;5.732;2023-03-01T23:04:04;75.18;;;29.60;;
